createdAt,value
2018-11-12T00:01:48.446Z,9.97
2018-11-12T00:04:17.774Z,9.37
2018-11-12T00:06:46.441Z,7.50
2018-11-12T00:09:14.951Z,5.37
2018-11-12T00:11:43.619Z,5.83
2018-11-12T00:14:12.126Z,7.40
2018-11-12T00:16:41.021Z,11.87
2018-11-12T00:19:09.629Z,9.00
2018-11-12T00:21:38.260Z,7.90
2018-11-12T00:24:07.015Z,11.30
2018-11-12T00:26:35.775Z,7.30
2018-11-12T00:29:04.303Z,9.77
2018-11-12T00:31:32.908Z,11.13
2018-11-12T00:34:01.485Z,12.80
2018-11-12T00:36:31.019Z,8.20
2018-11-12T00:38:59.539Z,10.57
2018-11-12T00:41:28.068Z,8.50
2018-11-12T00:43:56.629Z,8.43
2018-11-12T00:46:25.406Z,8.13
2018-11-12T00:48:53.957Z,10.03
2018-11-12T00:51:22.747Z,10.63
2018-11-12T00:53:51.379Z,10.03
2018-11-12T00:56:19.907Z,8.20
2018-11-12T00:58:48.475Z,18.80
2018-11-12T01:01:17.059Z,19.70
2018-11-12T01:03:45.593Z,16.60
2018-11-12T01:06:14.077Z,9.33
2018-11-12T01:08:42.651Z,13.67
2018-11-12T01:11:11.239Z,16.93
2018-11-12T01:13:39.800Z,10.63
2018-11-12T01:16:09.022Z,14.23
2018-11-12T01:18:37.542Z,15.10
2018-11-12T01:21:06.611Z,13.57
2018-11-12T01:23:35.577Z,10.50
2018-11-12T01:26:04.552Z,12.63
2018-11-12T01:28:33.200Z,10.33
2018-11-12T01:31:05.626Z,18.17
2018-11-12T01:33:35.631Z,13.93
2018-11-12T01:36:04.232Z,11.10
2018-11-12T01:38:32.949Z,18.47
2018-11-12T01:41:01.475Z,17.40
2018-11-12T01:43:30.086Z,19.43
2018-11-12T01:45:59.015Z,15.23
2018-11-12T01:48:27.532Z,21.93
2018-11-12T01:50:56.068Z,14.80
2018-11-12T01:53:24.590Z,19.03
2018-11-12T01:55:53.210Z,16.83
2018-11-12T01:58:21.733Z,19.00
2018-11-12T02:00:50.331Z,23.93
2018-11-12T02:03:18.912Z,19.00
2018-11-12T02:05:47.440Z,20.00
2018-11-12T02:08:16.006Z,15.30
2018-11-12T02:10:44.544Z,19.50
2018-11-12T02:13:13.104Z,22.63
2018-11-12T02:15:41.681Z,24.10
2018-11-12T02:18:10.250Z,27.93
2018-11-12T02:20:38.834Z,22.73
2018-11-12T02:23:07.357Z,25.17
2018-11-12T02:25:35.953Z,24.80
2018-11-12T02:28:04.895Z,22.60
2018-11-12T02:30:38.817Z,20.40
2018-11-12T02:33:07.390Z,26.20
2018-11-12T02:35:35.902Z,21.00
2018-11-12T02:38:04.466Z,20.60
2018-11-12T02:40:33.057Z,22.40
2018-11-12T02:43:01.635Z,23.97
2018-11-12T02:45:30.265Z,23.63
2018-11-12T02:47:58.913Z,26.17
2018-11-12T02:50:27.499Z,38.67
2018-11-12T02:52:56.101Z,26.67
2018-11-12T02:55:24.680Z,38.00
2018-11-12T02:57:53.245Z,25.23
2018-11-12T03:00:22.944Z,28.50
2018-11-12T03:02:51.574Z,30.27
2018-11-12T03:05:20.164Z,28.43
2018-11-12T03:07:48.745Z,27.20
2018-11-12T03:10:25.173Z,28.70
2018-11-12T03:12:53.799Z,35.23
2018-11-12T03:15:22.657Z,33.63
2018-11-12T03:17:57.646Z,39.73
2018-11-12T03:20:26.254Z,30.37
2018-11-12T03:22:54.779Z,29.60
2018-11-12T03:25:23.412Z,35.37
2018-11-12T03:27:52.161Z,34.03
2018-11-12T03:30:21.736Z,43.43
2018-11-12T03:32:50.953Z,36.67
2018-11-12T03:35:19.522Z,47.50
2018-11-12T03:37:49.019Z,38.57
2018-11-12T03:40:19.885Z,34.53
2018-11-12T03:42:48.947Z,35.07
2018-11-12T03:45:22.599Z,29.80
2018-11-12T03:47:51.725Z,36.97
2018-11-12T03:50:21.911Z,41.70
2018-11-12T03:52:50.558Z,37.27
2018-11-12T03:55:20.431Z,28.10
2018-11-12T03:57:48.954Z,29.93
2018-11-12T04:00:20.928Z,30.27
2018-11-12T04:02:49.500Z,33.53
2018-11-12T04:05:18.088Z,29.50
2018-11-12T04:07:46.680Z,30.40
2018-11-12T04:10:16.859Z,31.00
2018-11-12T04:12:45.446Z,31.70
2018-11-12T04:15:18.749Z,25.37
2018-11-12T04:17:47.279Z,39.47
2018-11-12T04:20:17.039Z,34.13
2018-11-12T04:23:18.374Z,47.53
2018-11-12T04:25:47.508Z,39.87
2018-11-12T04:28:16.390Z,37.30
2018-11-12T04:30:44.990Z,46.03
2018-11-12T04:33:13.565Z,43.67
2018-11-12T04:35:42.164Z,40.03
2018-11-12T04:38:10.833Z,42.00
2018-11-12T04:40:39.425Z,41.87
2018-11-12T04:43:07.945Z,43.00
2018-11-12T04:45:36.546Z,43.10
2018-11-12T04:48:05.099Z,37.13
2018-11-12T04:50:33.698Z,38.67
2018-11-12T04:53:02.212Z,37.93
2018-11-12T04:55:30.755Z,44.60
2018-11-12T04:57:59.317Z,44.57
2018-11-12T05:00:28.832Z,38.27
2018-11-12T05:02:57.381Z,42.07
2018-11-12T05:05:27.134Z,35.90
2018-11-12T05:07:55.674Z,35.03
2018-11-12T05:10:25.397Z,35.03
2018-11-12T05:12:54.487Z,37.27
2018-11-12T05:15:29.630Z,36.90
2018-11-12T05:17:58.175Z,35.97
2018-11-12T05:20:28.331Z,35.23
2018-11-12T05:22:56.898Z,39.60
2018-11-12T05:25:25.613Z,32.70
2018-11-12T05:27:54.138Z,30.07
2018-11-12T05:30:26.165Z,30.73
2018-11-12T05:32:55.159Z,33.87
2018-11-12T05:35:24.873Z,33.87
2018-11-12T05:37:53.630Z,39.63
2018-11-12T05:40:24.221Z,36.80
2018-11-12T05:42:52.892Z,35.47
2018-11-12T05:45:22.687Z,37.30
2018-11-12T05:47:51.252Z,38.80
2018-11-12T05:50:24.035Z,30.87
2018-11-12T05:52:54.003Z,38.40
2018-11-12T05:55:23.774Z,35.53
2018-11-12T05:57:52.338Z,28.77
2018-11-12T06:00:26.774Z,31.80
2018-11-12T06:02:55.528Z,33.10
2018-11-12T06:05:24.052Z,33.10
2018-11-12T06:07:52.637Z,34.57
2018-11-12T06:10:25.809Z,33.67
2018-11-12T06:12:54.365Z,32.00
2018-11-12T06:15:23.201Z,43.73
2018-11-12T06:17:52.221Z,29.87
2018-11-12T06:20:22.880Z,38.77
2018-11-12T06:22:52.224Z,31.07
2018-11-12T06:25:22.115Z,31.37
2018-11-12T06:27:51.210Z,38.27
2018-11-12T06:30:21.923Z,41.57
2018-11-12T06:32:50.557Z,39.00
2018-11-12T06:35:19.682Z,34.33
2018-11-12T06:37:49.298Z,34.50
2018-11-12T06:40:20.012Z,34.23
2018-11-12T06:42:48.725Z,36.77
2018-11-12T06:45:20.147Z,41.20
2018-11-12T06:47:49.654Z,39.03
2018-11-12T06:50:21.375Z,34.40
2018-11-12T06:52:50.067Z,31.50
2018-11-12T06:55:19.087Z,33.03
2018-11-12T06:57:48.154Z,38.60
2018-11-12T07:00:25.460Z,37.13
2018-11-12T07:02:54.101Z,34.70
2018-11-12T07:05:22.621Z,38.30
2018-11-12T07:07:51.202Z,42.97
2018-11-12T07:10:21.162Z,43.20
2018-11-12T07:12:50.555Z,38.70
2018-11-12T07:15:20.505Z,34.77
2018-11-12T07:17:49.146Z,41.60
2018-11-12T07:20:19.379Z,40.53
2018-11-12T07:22:48.077Z,43.07
2018-11-12T07:25:17.736Z,45.47
2018-11-12T07:27:46.279Z,46.90
2018-11-12T07:30:18.028Z,34.73
2018-11-12T07:32:47.087Z,45.13
2018-11-12T07:35:16.478Z,46.53
2018-11-12T07:37:46.228Z,44.07
2018-11-12T07:40:15.538Z,42.70
2018-11-12T07:42:44.326Z,39.23
2018-11-12T07:45:16.810Z,37.40
2018-11-12T07:47:46.286Z,39.90
2018-11-12T07:50:17.150Z,42.57
2018-11-12T07:52:45.841Z,36.70
2018-11-12T07:55:16.240Z,37.00
2018-11-12T07:57:45.647Z,44.67
2018-11-12T08:00:16.562Z,38.27
2018-11-12T08:02:46.098Z,39.50
2018-11-12T08:05:15.013Z,34.63
2018-11-12T08:07:44.217Z,34.93
2018-11-12T08:10:15.047Z,34.33
2018-11-12T08:12:44.438Z,45.37
2018-11-12T08:15:14.250Z,38.13
2018-11-12T08:17:43.051Z,32.57
2018-11-12T08:20:13.977Z,40.70
2018-11-12T08:22:43.164Z,36.17
2018-11-12T08:25:12.393Z,39.60
2018-11-12T08:27:41.753Z,33.63
2018-11-12T08:30:13.934Z,31.37
2018-11-12T08:32:43.083Z,27.03
2018-11-12T08:35:12.982Z,30.43
2018-11-12T08:37:41.574Z,26.63
2018-11-12T08:40:12.606Z,28.43
2018-11-12T08:42:41.778Z,30.83
2018-11-12T08:45:10.878Z,28.37
2018-11-12T08:47:40.297Z,27.90
2018-11-12T08:50:15.047Z,25.33
2018-11-12T08:52:44.727Z,36.87
2018-11-12T08:55:16.537Z,24.40
2018-11-12T08:57:48.331Z,23.97
2018-11-12T09:00:17.433Z,29.47
2018-11-12T09:02:45.986Z,24.73
2018-11-12T09:05:15.757Z,32.50
2018-11-12T09:07:46.787Z,20.60
2018-11-12T09:10:17.169Z,28.57
2018-11-12T09:12:46.085Z,23.63
2018-11-12T09:15:14.907Z,25.00
2018-11-12T09:17:44.354Z,23.97
2018-11-12T09:20:15.475Z,25.37
2018-11-12T09:22:43.991Z,26.93
2018-11-12T09:25:15.255Z,22.73
2018-11-12T09:27:43.895Z,27.53
2018-11-12T09:30:16.434Z,23.20
2018-11-12T09:32:45.173Z,18.80
2018-11-12T09:35:14.899Z,22.97
2018-11-12T09:37:44.833Z,20.93
2018-11-12T09:40:17.604Z,24.57
2018-11-12T09:42:46.558Z,20.90
2018-11-12T09:45:15.083Z,20.83
2018-11-12T09:47:44.229Z,20.00
2018-11-12T09:50:14.503Z,28.50
2018-11-12T09:52:44.419Z,21.27
2018-11-12T09:55:13.621Z,18.00
2018-11-12T09:57:43.161Z,23.53
2018-11-12T10:00:13.959Z,22.00
2018-11-12T10:02:44.881Z,20.97
2018-11-12T10:05:13.416Z,22.10
2018-11-12T10:07:42.450Z,18.17
2018-11-12T10:10:23.448Z,17.33
2018-11-12T10:12:52.083Z,19.97
2018-11-12T10:15:22.191Z,17.87
2018-11-12T10:17:50.053Z,18.60
2018-11-12T10:20:16.199Z,21.03
2018-11-12T10:22:44.945Z,16.87
2018-11-12T10:25:14.250Z,14.97
2018-11-12T10:27:42.799Z,19.30
2018-11-12T10:30:11.607Z,15.63
2018-11-12T10:32:40.398Z,15.10
2018-11-12T10:35:09.724Z,21.67
2018-11-12T10:37:38.888Z,19.80
2018-11-12T10:40:16.928Z,19.83
2018-11-12T10:42:46.103Z,15.77
2018-11-12T10:45:15.741Z,16.90
2018-11-12T10:47:44.945Z,20.07
2018-11-12T10:50:13.683Z,16.70
2018-11-12T10:52:42.253Z,24.13
2018-11-12T10:55:13.958Z,19.03
2018-11-12T10:57:43.165Z,15.27
2018-11-12T11:00:19.575Z,16.47
2018-11-12T11:02:53.200Z,17.83
2018-11-12T11:05:21.920Z,16.50
2018-11-12T11:07:51.386Z,12.80
2018-11-12T11:10:20.408Z,15.20
2018-11-12T11:12:48.932Z,15.93
2018-11-12T11:15:17.518Z,17.93
2018-11-12T11:17:46.478Z,13.73
2018-11-12T11:20:15.121Z,15.20
2018-11-12T11:22:43.649Z,16.67
2018-11-12T11:25:12.169Z,19.03
2018-11-12T11:27:40.828Z,13.83
2018-11-12T11:30:11.651Z,13.90
2018-11-12T11:32:40.335Z,15.07
2018-11-12T11:35:09.799Z,15.00
2018-11-12T11:37:38.359Z,13.27
2018-11-12T11:40:10.344Z,16.37
2018-11-12T11:42:39.251Z,14.50
2018-11-12T11:45:08.707Z,12.47
2018-11-12T11:47:37.660Z,13.17
2018-11-12T11:50:06.956Z,18.20
2018-11-12T11:52:35.571Z,13.70
2018-11-12T11:55:04.669Z,15.23
2018-11-12T11:57:33.309Z,22.33
2018-11-12T12:00:01.836Z,19.57
2018-11-12T12:02:30.415Z,20.23
2018-11-12T12:04:59.056Z,15.20
2018-11-12T12:07:27.596Z,16.70
2018-11-12T12:09:56.227Z,17.27
2018-11-12T12:12:24.795Z,21.37
2018-11-12T12:14:53.314Z,18.23
2018-11-12T12:17:21.873Z,20.47
2018-11-12T12:19:50.794Z,22.53
2018-11-12T12:22:19.467Z,20.00
2018-11-12T12:24:48.140Z,23.83
2018-11-12T12:27:16.567Z,19.70
2018-11-12T12:29:45.100Z,25.87
2018-11-12T12:32:13.619Z,22.60
2018-11-12T12:34:42.159Z,25.13
2018-11-12T12:37:10.743Z,27.33
2018-11-12T12:39:39.299Z,21.33
2018-11-12T12:42:07.832Z,26.80
2018-11-12T12:44:37.107Z,25.40
2018-11-12T12:47:05.855Z,23.87
2018-11-12T12:49:35.420Z,28.47
2018-11-12T12:52:04.926Z,26.57
2018-11-12T12:54:33.562Z,29.33
2018-11-12T12:57:02.116Z,26.43
2018-11-12T12:59:30.728Z,31.80
2018-11-12T13:01:59.494Z,27.80
2018-11-12T13:04:27.905Z,28.67
2018-11-12T13:06:56.442Z,25.47
2018-11-12T13:09:25.008Z,21.90
2018-11-12T13:11:53.628Z,23.60
2018-11-12T13:14:22.151Z,22.20
2018-11-12T13:16:50.730Z,24.10
2018-11-12T13:19:19.319Z,22.53
2018-11-12T13:21:47.868Z,22.57
2018-11-12T13:24:16.472Z,20.30
2018-11-12T13:26:45.027Z,19.00
2018-11-12T13:29:13.578Z,19.27
2018-11-12T13:31:42.206Z,21.93
2018-11-12T13:34:10.744Z,20.43
2018-11-12T13:36:39.239Z,21.90
2018-11-12T13:39:10.890Z,21.17
2018-11-12T13:41:39.819Z,19.13
2018-11-12T13:44:08.543Z,24.27
2018-11-12T13:46:42.222Z,24.40
2018-11-12T13:49:10.896Z,26.77
2018-11-12T13:51:39.472Z,26.27
2018-11-12T13:54:08.888Z,29.50
2018-11-12T13:56:37.413Z,25.43
2018-11-12T13:59:06.250Z,26.47
2018-11-12T14:01:34.930Z,25.57
2018-11-12T14:04:03.501Z,23.73
2018-11-12T14:06:32.121Z,24.03
2018-11-12T14:09:00.733Z,22.17
2018-11-12T14:11:29.252Z,21.63
2018-11-12T14:13:58.065Z,22.53
2018-11-12T14:16:26.602Z,23.93
2018-11-12T14:18:55.224Z,20.03
2018-11-12T14:21:23.875Z,24.90
2018-11-12T14:23:52.381Z,20.50
2018-11-12T14:26:20.995Z,23.83
2018-11-12T14:28:49.878Z,23.93
2018-11-12T14:31:18.447Z,32.20
2018-11-12T14:33:46.953Z,40.07
2018-11-12T14:36:15.503Z,34.17
2018-11-12T14:38:44.040Z,34.00
2018-11-12T14:41:12.596Z,32.43
2018-11-12T14:43:41.120Z,25.70
2018-11-12T14:46:09.713Z,30.43
2018-11-12T14:48:38.545Z,26.07
2018-11-12T14:51:07.305Z,26.40
2018-11-12T14:53:35.819Z,26.40
2018-11-12T14:56:04.348Z,23.17
2018-11-12T14:58:32.956Z,25.50
2018-11-12T15:01:01.495Z,27.83
2018-11-12T15:03:30.077Z,25.37
2018-11-12T15:05:58.655Z,23.83
2018-11-12T15:08:27.338Z,25.00
2018-11-12T15:10:55.926Z,23.07
2018-11-12T15:13:24.471Z,21.80
2018-11-12T15:15:53.002Z,20.63
2018-11-12T15:18:21.772Z,17.47
2018-11-12T15:20:50.480Z,16.27
2018-11-12T15:23:19.029Z,15.93
2018-11-12T15:25:48.171Z,15.53
2018-11-12T15:28:16.823Z,12.90
2018-11-12T15:30:45.367Z,12.03
2018-11-12T15:33:13.911Z,11.30
2018-11-12T15:35:42.540Z,10.40
2018-11-12T15:38:11.099Z,10.17
2018-11-12T15:40:39.623Z,13.90
2018-11-12T15:43:08.201Z,11.93
2018-11-12T15:45:36.766Z,10.30
2018-11-12T15:48:05.426Z,11.30
2018-11-12T15:50:35.591Z,18.50
2018-11-12T15:53:04.223Z,17.90
2018-11-12T15:55:32.807Z,15.23
2018-11-12T15:58:01.397Z,14.73
2018-11-12T16:00:29.956Z,10.40
2018-11-12T16:02:58.481Z,14.33
2018-11-12T16:05:27.198Z,14.87
2018-11-12T16:07:55.730Z,13.80
2018-11-12T16:10:24.269Z,14.60
2018-11-12T16:12:52.796Z,11.97
2018-11-12T16:15:22.157Z,13.00
2018-11-12T16:17:50.730Z,13.30
2018-11-12T16:20:21.666Z,13.40
2018-11-12T16:22:50.772Z,17.53
2018-11-12T16:25:19.757Z,15.67
2018-11-12T16:27:48.306Z,13.00
2018-11-12T16:30:16.840Z,16.93
2018-11-12T16:32:45.890Z,16.27
2018-11-12T16:35:16.105Z,13.30
2018-11-12T16:37:45.335Z,12.70
2018-11-12T16:40:13.955Z,15.53
2018-11-12T16:42:43.562Z,16.43
2018-11-12T16:45:12.944Z,14.90
2018-11-12T16:47:41.615Z,16.47
2018-11-12T16:50:11.237Z,18.00
2018-11-12T16:52:39.847Z,15.23
2018-11-12T16:55:11.828Z,16.13
2018-11-12T16:57:40.397Z,16.90
2018-11-12T17:00:12.024Z,14.40
2018-11-12T17:02:40.826Z,17.50
2018-11-12T17:05:11.430Z,17.33
2018-11-12T17:07:40.035Z,22.20
2018-11-12T17:10:10.150Z,19.87
2018-11-12T17:12:39.471Z,17.30
2018-11-12T17:15:08.781Z,16.50
2018-11-12T17:17:37.385Z,34.70
2018-11-12T17:20:06.523Z,52.40
2018-11-12T17:22:35.232Z,32.30
2018-11-12T17:25:04.197Z,24.03
2018-11-12T17:27:32.744Z,24.90
2018-11-12T17:30:01.320Z,19.63
2018-11-12T17:32:30.051Z,22.70
2018-11-12T17:34:58.643Z,23.43
2018-11-12T17:37:27.176Z,21.40
2018-11-12T17:39:55.816Z,24.27
2018-11-12T17:42:24.508Z,17.70
2018-11-12T17:44:53.109Z,15.07
2018-11-12T17:47:21.677Z,12.10
2018-11-12T17:49:50.212Z,14.67
2018-11-12T17:52:18.752Z,18.20
2018-11-12T17:54:47.295Z,28.20
2018-11-12T17:57:15.820Z,21.93
2018-11-12T17:59:44.458Z,19.57
2018-11-12T18:02:12.952Z,22.93
2018-11-12T18:04:41.514Z,22.20
2018-11-12T18:07:10.171Z,25.10
2018-11-12T18:09:38.645Z,24.93
2018-11-12T18:12:07.958Z,19.80
2018-11-12T18:14:36.568Z,24.17
2018-11-12T18:17:05.093Z,20.57
2018-11-12T18:19:33.670Z,19.20
2018-11-12T18:22:02.453Z,20.27
2018-11-12T18:24:31.063Z,20.57
2018-11-12T18:26:59.595Z,18.03
2018-11-12T18:29:28.138Z,18.40
2018-11-12T18:31:56.859Z,23.40
2018-11-12T18:34:25.224Z,20.77
2018-11-12T18:36:53.725Z,22.10
2018-11-12T18:39:22.225Z,19.40
2018-11-12T18:41:50.890Z,20.10
2018-11-12T18:44:19.497Z,28.53
2018-11-12T18:46:48.429Z,17.50
2018-11-12T18:49:16.986Z,19.07
2018-11-12T18:51:45.517Z,17.40
2018-11-12T18:54:14.092Z,20.20
2018-11-12T18:56:42.607Z,20.90
2018-11-12T18:59:11.156Z,23.83
2018-11-12T19:01:39.682Z,28.20
2018-11-12T19:04:08.288Z,29.73
2018-11-12T19:06:36.902Z,29.00
2018-11-12T19:09:07.830Z,26.60
2018-11-12T19:11:36.419Z,41.00
2018-11-12T19:14:05.302Z,29.80
2018-11-12T19:16:33.880Z,45.60
2018-11-12T19:19:02.459Z,36.70
2018-11-12T19:21:31.092Z,29.80
2018-11-12T19:23:59.598Z,25.30
2018-11-12T19:26:28.097Z,34.63
2018-11-12T19:28:56.646Z,46.13
2018-11-12T19:31:25.175Z,85.57
2018-11-12T19:33:53.840Z,148.40
2018-11-12T19:36:22.392Z,125.30
2018-11-12T19:38:51.044Z,132.90
2018-11-12T19:41:19.785Z,108.73
2018-11-12T19:43:48.313Z,98.73
2018-11-12T19:46:16.864Z,57.97
2018-11-12T19:48:45.674Z,40.30
2018-11-12T19:51:14.261Z,42.73
2018-11-12T19:53:42.785Z,31.53
2018-11-12T19:56:11.426Z,28.63
2018-11-12T19:58:39.961Z,28.00
2018-11-12T20:01:08.558Z,25.00
2018-11-12T20:03:37.155Z,31.83
2018-11-12T20:06:06.782Z,30.70
2018-11-12T20:08:35.295Z,31.30
2018-11-12T20:11:03.848Z,36.70
2018-11-12T20:13:32.391Z,31.00
2018-11-12T20:16:00.962Z,33.53
2018-11-12T20:18:29.595Z,31.40
2018-11-12T20:20:58.135Z,26.73
2018-11-12T20:23:26.706Z,28.87
2018-11-12T20:25:55.571Z,26.17
2018-11-12T20:28:24.131Z,31.47
2018-11-12T20:30:52.709Z,40.83
2018-11-12T20:33:21.290Z,28.63
2018-11-12T20:35:49.840Z,38.67
2018-11-12T20:38:18.412Z,41.53
2018-11-12T20:40:46.958Z,35.40
2018-11-12T20:43:15.494Z,37.73
2018-11-12T20:45:44.044Z,38.73
2018-11-12T20:48:12.618Z,34.00
2018-11-12T20:50:41.248Z,35.93
2018-11-12T20:53:09.785Z,37.17
2018-11-12T20:55:38.538Z,37.87
2018-11-12T20:58:07.274Z,37.20
2018-11-12T21:00:35.835Z,33.90
2018-11-12T21:03:04.422Z,42.53
2018-11-12T21:05:32.967Z,42.37
2018-11-12T21:08:01.612Z,48.17
2018-11-12T21:10:30.145Z,53.73
2018-11-12T21:12:58.671Z,52.93
2018-11-12T21:15:27.223Z,57.03
2018-11-12T21:17:55.761Z,53.03
2018-11-12T21:20:25.475Z,58.17
2018-11-12T21:22:54.303Z,48.67
2018-11-12T21:25:24.053Z,53.70
2018-11-12T21:27:52.638Z,69.53
2018-11-12T21:30:28.343Z,57.30
2018-11-12T21:32:56.865Z,64.07
2018-11-12T21:35:25.791Z,64.10
2018-11-12T21:37:55.532Z,64.73
2018-11-12T21:40:25.305Z,58.87
2018-11-12T21:42:54.043Z,59.27
2018-11-12T21:45:24.067Z,71.80
2018-11-12T21:47:52.604Z,71.17
2018-11-12T21:50:21.843Z,62.13
2018-11-12T21:52:50.736Z,63.37
2018-11-12T21:55:25.890Z,65.73
2018-11-12T21:57:54.476Z,75.23
2018-11-12T22:00:25.863Z,65.30
2018-11-12T22:02:55.743Z,63.67
2018-11-12T22:05:24.493Z,61.70
2018-11-12T22:07:53.048Z,72.20
2018-11-12T22:10:21.599Z,68.30
2018-11-12T22:12:51.144Z,62.40
2018-11-12T22:15:26.333Z,68.17
2018-11-12T22:17:55.035Z,62.00
2018-11-12T22:20:25.132Z,66.67
2018-11-12T22:22:53.671Z,56.87
2018-11-12T22:25:22.958Z,53.07
2018-11-12T22:27:52.394Z,62.90
2018-11-12T22:30:22.186Z,65.57
2018-11-12T22:32:51.919Z,62.07
2018-11-12T22:35:20.468Z,69.27
2018-11-12T22:37:49.297Z,65.50
2018-11-12T22:40:18.631Z,61.87
2018-11-12T22:42:48.287Z,60.67
2018-11-12T22:45:18.393Z,70.30
2018-11-12T22:47:47.581Z,65.27
2018-11-12T22:50:16.097Z,64.90
2018-11-12T22:52:45.245Z,64.63
2018-11-12T22:55:14.955Z,63.33
2018-11-12T22:57:43.532Z,63.27
2018-11-12T23:00:24.292Z,70.63
2018-11-12T23:02:53.083Z,70.07
2018-11-12T23:05:22.048Z,76.87
2018-11-12T23:07:51.108Z,70.97
2018-11-12T23:10:20.118Z,84.40
2018-11-12T23:12:48.710Z,83.87
2018-11-12T23:15:17.817Z,70.03
2018-11-12T23:17:46.379Z,70.13
2018-11-12T23:20:17.068Z,73.07
2018-11-12T23:22:46.508Z,67.67
2018-11-12T23:25:15.154Z,77.97
2018-11-12T23:27:44.678Z,71.93
2018-11-12T23:30:14.784Z,78.57
2018-11-12T23:32:43.386Z,69.30
2018-11-12T23:35:14.031Z,71.17
2018-11-12T23:37:43.403Z,70.30
2018-11-12T23:40:15.571Z,76.73
2018-11-12T23:42:44.781Z,86.03
2018-11-12T23:45:13.419Z,74.30
2018-11-12T23:47:45.316Z,83.27
2018-11-12T23:50:17.037Z,81.53
2018-11-12T23:52:46.466Z,71.77
2018-11-12T23:55:15.378Z,80.50
2018-11-12T23:57:45.279Z,91.63
